RYR68KK LZIB-LIEA
Flight info
| Callsign | RYR68KK |
|---|---|
| Flight time | 2h 9m |
| Altitude | 36000 |
| Route | TOVKA DCT GRZ DCT RADLY DCT MONFA DCT BABAG DCT GAVRA DCT IBRID DCT PODOX DCT OLBEK DCT POZZO L5 MINKA |
| Aircraft | B738/M-SDE2E3FGHIRWXY/LB1 |
Departure
| Time | 2026-05-07 12:05 |
|---|---|
| Airport | M. R. Štefánik Airport (LZIB) |
Arrival
| Time | 2026-05-07 14:14 |
|---|---|
| Airport | Alghero-Fertilia Airport (LIEA) |
| Time | Latitude | Longitude | Altitude | Speed | Heading |
|---|---|---|---|---|---|
| 2026-05-07 11:41 | 48.16941 | 17.20137 | 431 ft | 0 kts | 314° |
| 2026-05-07 11:57 | 48.16938 | 17.20142 | 431 ft | 3 kts | 316° |
| 2026-05-07 11:57 | 48.16917 | 17.20163 | 422 ft | 4 kts | 349° |
| 2026-05-07 11:57 | 48.16891 | 17.20162 | 431 ft | 4 kts | 21° |
| 2026-05-07 11:57 | 48.16872 | 17.20145 | 431 ft | 1 kts | 44° |
| 2026-05-07 11:58 | 48.16871 | 17.20145 | 421 ft | 0 kts | 44° |
| 2026-05-07 12:00 | 48.16881 | 17.20158 | 431 ft | 5 kts | 43° |
| 2026-05-07 12:00 | 48.16924 | 17.20219 | 428 ft | 12 kts | 43° |
| 2026-05-07 12:00 | 48.17001 | 17.20329 | 428 ft | 18 kts | 41° |
| 2026-05-07 12:01 | 48.17093 | 17.20463 | 425 ft | 18 kts | 53° |
| 2026-05-07 12:01 | 48.17168 | 17.20604 | 427 ft | 16 kts | 83° |
| 2026-05-07 12:01 | 48.17124 | 17.20711 | 419 ft | 11 kts | 132° |
| 2026-05-07 12:01 | 48.17094 | 17.20761 | 421 ft | 4 kts | 132° |
| 2026-05-07 12:02 | 48.17083 | 17.20780 | 422 ft | 1 kts | 132° |
| 2026-05-07 12:02 | 48.17080 | 17.20784 | 430 ft | 0 kts | 132° |
| 2026-05-07 12:02 | 48.17045 | 17.20841 | 418 ft | 11 kts | 134° |
| 2026-05-07 12:02 | 48.16975 | 17.20949 | 427 ft | 18 kts | 134° |
| 2026-05-07 12:03 | 48.16921 | 17.21128 | 421 ft | 22 kts | 63° |
| 2026-05-07 12:03 | 48.17031 | 17.21308 | 423 ft | 26 kts | 45° |
| 2026-05-07 12:03 | 48.17170 | 17.21510 | 428 ft | 28 kts | 44° |
| 2026-05-07 12:03 | 48.17306 | 17.21704 | 422 ft | 26 kts | 43° |
| 2026-05-07 12:04 | 48.17435 | 17.21885 | 416 ft | 24 kts | 43° |
| 2026-05-07 12:04 | 48.17558 | 17.22038 | 425 ft | 20 kts | 28° |
| 2026-05-07 12:04 | 48.17563 | 17.22096 | 423 ft | 8 kts | 198° |
| 2026-05-07 12:04 | 48.17476 | 17.21970 | 427 ft | 48 kts | 224° |
| 2026-05-07 12:05 | 48.17028 | 17.21304 | 420 ft | 130 kts | 226° |
| 2026-05-07 12:05 | 48.16233 | 17.20171 | 762 ft | 170 kts | 225° |
| 2026-05-07 12:05 | 48.15359 | 17.18930 | 1768 ft | 175 kts | 223° |
| 2026-05-07 12:05 | 48.14449 | 17.17691 | 2673 ft | 187 kts | 225° |
| 2026-05-07 12:06 | 48.13415 | 17.16296 | 3114 ft | 210 kts | 215° |
| 2026-05-07 12:06 | 48.11993 | 17.15711 | 3743 ft | 221 kts | 176° |
| 2026-05-07 12:06 | 48.10551 | 17.16552 | 4515 ft | 228 kts | 144° |
| 2026-05-07 12:06 | 48.09381 | 17.18158 | 5409 ft | 228 kts | 136° |
| 2026-05-07 12:07 | 48.08279 | 17.19893 | 6257 ft | 232 kts | 133° |
| 2026-05-07 12:07 | 48.07499 | 17.21971 | 7023 ft | 238 kts | 103° |
| 2026-05-07 12:07 | 48.07583 | 17.24453 | 7778 ft | 245 kts | 69° |
| 2026-05-07 12:07 | 48.08563 | 17.26546 | 8510 ft | 250 kts | 45° |
| 2026-05-07 12:08 | 48.09832 | 17.28363 | 9242 ft | 255 kts | 41° |
| 2026-05-07 12:08 | 48.11383 | 17.29636 | 9938 ft | 258 kts | 11° |
| 2026-05-07 12:08 | 48.13163 | 17.29676 | 10601 ft | 261 kts | 340° |
| 2026-05-07 12:08 | 48.14744 | 17.28277 | 10877 ft | 276 kts | 312° |
| 2026-05-07 12:09 | 48.16109 | 17.26087 | 11117 ft | 301 kts | 309° |
| 2026-05-07 12:09 | 48.17584 | 17.23659 | 11298 ft | 327 kts | 308° |
| 2026-05-07 12:09 | 48.18828 | 17.20723 | 11534 ft | 343 kts | 291° |
| 2026-05-07 12:09 | 48.19777 | 17.17388 | 12132 ft | 352 kts | 290° |
| 2026-05-07 12:10 | 48.20736 | 17.13991 | 12879 ft | 356 kts | 290° |
| 2026-05-07 12:10 | 48.21720 | 17.10568 | 13662 ft | 359 kts | 290° |
| 2026-05-07 12:10 | 48.22729 | 17.07129 | 14422 ft | 362 kts | 290° |
| 2026-05-07 12:10 | 48.23755 | 17.03664 | 15118 ft | 366 kts | 290° |
| 2026-05-07 12:11 | 48.24788 | 17.00151 | 15833 ft | 369 kts | 288° |
| 2026-05-07 12:11 | 48.25345 | 16.96440 | 16493 ft | 364 kts | 266° |
| 2026-05-07 12:11 | 48.24941 | 16.92742 | 17225 ft | 359 kts | 248° |
| 2026-05-07 12:11 | 48.23810 | 16.89435 | 17919 ft | 357 kts | 233° |
| 2026-05-07 12:12 | 48.22092 | 16.86754 | 18540 ft | 358 kts | 219° |
| 2026-05-07 12:12 | 48.20136 | 16.84421 | 19203 ft | 360 kts | 217° |
| 2026-05-07 12:12 | 48.18131 | 16.82144 | 19831 ft | 363 kts | 216° |
| 2026-05-07 12:12 | 48.16109 | 16.79875 | 20431 ft | 365 kts | 216° |
| 2026-05-07 12:13 | 48.14074 | 16.77585 | 21026 ft | 368 kts | 216° |
| 2026-05-07 12:13 | 48.12026 | 16.75268 | 21600 ft | 370 kts | 216° |
| 2026-05-07 12:13 | 48.09971 | 16.72931 | 22152 ft | 372 kts | 216° |
| 2026-05-07 12:13 | 48.07905 | 16.70574 | 22693 ft | 375 kts | 216° |
| 2026-05-07 12:14 | 48.05831 | 16.68201 | 23226 ft | 377 kts | 215° |
| 2026-05-07 12:14 | 48.03744 | 16.65811 | 23739 ft | 379 kts | 215° |
| 2026-05-07 12:14 | 48.01642 | 16.63403 | 24207 ft | 382 kts | 215° |
| 2026-05-07 12:14 | 47.99532 | 16.60987 | 24695 ft | 383 kts | 215° |
| 2026-05-07 12:15 | 47.97442 | 16.58595 | 25158 ft | 385 kts | 215° |
| 2026-05-07 12:15 | 47.95309 | 16.56157 | 25568 ft | 388 kts | 216° |
| 2026-05-07 12:15 | 47.93157 | 16.53701 | 25989 ft | 390 kts | 216° |
| 2026-05-07 12:15 | 47.91012 | 16.51254 | 26452 ft | 391 kts | 216° |
| 2026-05-07 12:16 | 47.88836 | 16.48776 | 26882 ft | 392 kts | 216° |
| 2026-05-07 12:16 | 47.86664 | 16.46304 | 27270 ft | 394 kts | 216° |
| 2026-05-07 12:16 | 47.84483 | 16.43825 | 27657 ft | 396 kts | 216° |
| 2026-05-07 12:16 | 47.82285 | 16.41330 | 28025 ft | 398 kts | 216° |
| 2026-05-07 12:17 | 47.80083 | 16.38832 | 28397 ft | 399 kts | 216° |
| 2026-05-07 12:17 | 47.77871 | 16.36325 | 28766 ft | 400 kts | 216° |
| 2026-05-07 12:17 | 47.75658 | 16.33821 | 29217 ft | 399 kts | 216° |
| 2026-05-07 12:17 | 47.73461 | 16.31337 | 29718 ft | 396 kts | 216° |
| 2026-05-07 12:18 | 47.71277 | 16.28871 | 30219 ft | 393 kts | 216° |
| 2026-05-07 12:18 | 47.69109 | 16.26424 | 30665 ft | 391 kts | 216° |
| 2026-05-07 12:18 | 47.66944 | 16.23984 | 31047 ft | 391 kts | 216° |
| 2026-05-07 12:18 | 47.64781 | 16.21548 | 31472 ft | 389 kts | 216° |
| 2026-05-07 12:19 | 47.62632 | 16.19132 | 31862 ft | 388 kts | 216° |
| 2026-05-07 12:19 | 47.60479 | 16.16715 | 32225 ft | 387 kts | 216° |
| 2026-05-07 12:19 | 47.58339 | 16.14315 | 32654 ft | 385 kts | 216° |
| 2026-05-07 12:19 | 47.56207 | 16.11925 | 33058 ft | 383 kts | 216° |
| 2026-05-07 12:20 | 47.54083 | 16.09546 | 33378 ft | 383 kts | 216° |
| 2026-05-07 12:20 | 47.51956 | 16.07168 | 33688 ft | 383 kts | 216° |
| 2026-05-07 12:20 | 47.49833 | 16.04796 | 34051 ft | 381 kts | 216° |
| 2026-05-07 12:20 | 47.47724 | 16.02441 | 34409 ft | 380 kts | 216° |
| 2026-05-07 12:21 | 47.45615 | 16.00090 | 34622 ft | 382 kts | 217° |
| 2026-05-07 12:21 | 47.43484 | 15.97716 | 34804 ft | 384 kts | 216° |
| 2026-05-07 12:21 | 47.41353 | 15.95344 | 35081 ft | 384 kts | 217° |
| 2026-05-07 12:21 | 47.39214 | 15.92966 | 35310 ft | 385 kts | 217° |
| 2026-05-07 12:22 | 47.37067 | 15.90583 | 35516 ft | 387 kts | 217° |
| 2026-05-07 12:22 | 47.34912 | 15.88193 | 35703 ft | 388 kts | 217° |
| 2026-05-07 12:22 | 47.32755 | 15.85803 | 35930 ft | 388 kts | 217° |
| 2026-05-07 12:23 | 47.28385 | 15.80967 | 35953 ft | 394 kts | 217° |
| 2026-05-07 12:23 | 47.24018 | 15.76146 | 35943 ft | 389 kts | 217° |
| 2026-05-07 12:24 | 47.19715 | 15.71406 | 35956 ft | 386 kts | 217° |
| 2026-05-07 12:24 | 47.15414 | 15.66676 | 35947 ft | 386 kts | 217° |
| 2026-05-07 12:25 | 47.11110 | 15.61952 | 35944 ft | 386 kts | 217° |
| 2026-05-07 12:25 | 47.06807 | 15.57241 | 35942 ft | 386 kts | 217° |
| 2026-05-07 12:26 | 47.02504 | 15.52538 | 35944 ft | 386 kts | 217° |
| 2026-05-07 12:26 | 46.98191 | 15.47833 | 35947 ft | 387 kts | 217° |
| 2026-05-07 12:27 | 46.93781 | 15.43423 | 35943 ft | 387 kts | 210° |
| 2026-05-07 12:27 | 46.88985 | 15.39716 | 35938 ft | 388 kts | 209° |
| 2026-05-07 12:28 | 46.84208 | 15.36052 | 35943 ft | 388 kts | 209° |
| 2026-05-07 12:28 | 46.79477 | 15.32381 | 35944 ft | 387 kts | 210° |
| 2026-05-07 12:29 | 46.74718 | 15.28677 | 35944 ft | 388 kts | 210° |
| 2026-05-07 12:29 | 46.69960 | 15.24980 | 35953 ft | 388 kts | 210° |
| 2026-05-07 12:30 | 46.65327 | 15.20985 | 35954 ft | 386 kts | 218° |
| 2026-05-07 12:30 | 46.61501 | 15.15527 | 35965 ft | 386 kts | 229° |
| 2026-05-07 12:31 | 46.58605 | 15.10506 | 35957 ft | 387 kts | 229° |
| 2026-05-07 12:31 | 46.55140 | 15.04519 | 35960 ft | 387 kts | 229° |
| 2026-05-07 12:32 | 46.51660 | 14.98544 | 35955 ft | 388 kts | 229° |
| 2026-05-07 12:32 | 46.48169 | 14.92577 | 35954 ft | 388 kts | 229° |
| 2026-05-07 12:33 | 46.42937 | 14.83665 | 35948 ft | 388 kts | 229° |
| 2026-05-07 12:33 | 46.39415 | 14.77682 | 35963 ft | 387 kts | 229° |
| 2026-05-07 12:34 | 46.35919 | 14.71757 | 35964 ft | 387 kts | 229° |
| 2026-05-07 12:34 | 46.32410 | 14.65824 | 35967 ft | 388 kts | 229° |
| 2026-05-07 12:35 | 46.28930 | 14.59951 | 35962 ft | 386 kts | 229° |
| 2026-05-07 12:35 | 46.25436 | 14.54067 | 35958 ft | 385 kts | 229° |
| 2026-05-07 12:36 | 46.21925 | 14.48168 | 35955 ft | 384 kts | 229° |
| 2026-05-07 12:36 | 46.18442 | 14.42330 | 35966 ft | 383 kts | 229° |
| 2026-05-07 12:37 | 46.14970 | 14.36517 | 35961 ft | 382 kts | 229° |
| 2026-05-07 12:37 | 46.11529 | 14.30771 | 35965 ft | 380 kts | 229° |
| 2026-05-07 12:38 | 46.08069 | 14.25006 | 35975 ft | 380 kts | 229° |
| 2026-05-07 12:38 | 46.04579 | 14.19203 | 35973 ft | 381 kts | 229° |
| 2026-05-07 12:39 | 46.01104 | 14.13437 | 35974 ft | 382 kts | 229° |
| 2026-05-07 12:39 | 45.97619 | 14.07666 | 35981 ft | 382 kts | 228° |
| 2026-05-07 12:40 | 45.94146 | 14.01928 | 35979 ft | 383 kts | 228° |
| 2026-05-07 12:40 | 45.90643 | 13.96151 | 35988 ft | 384 kts | 228° |
| 2026-05-07 12:41 | 45.87132 | 13.90374 | 35994 ft | 385 kts | 228° |
| 2026-05-07 12:41 | 45.83611 | 13.84593 | 35997 ft | 385 kts | 228° |
| 2026-05-07 12:42 | 45.80081 | 13.78808 | 35995 ft | 385 kts | 228° |
| 2026-05-07 12:42 | 45.76545 | 13.73025 | 35989 ft | 385 kts | 228° |
| 2026-05-07 12:43 | 45.73011 | 13.67258 | 35995 ft | 385 kts | 228° |
| 2026-05-07 12:43 | 45.69473 | 13.61498 | 35989 ft | 385 kts | 228° |
| 2026-05-07 12:44 | 45.65932 | 13.55744 | 35992 ft | 385 kts | 229° |
| 2026-05-07 12:44 | 45.62389 | 13.49996 | 35989 ft | 385 kts | 229° |
| 2026-05-07 12:45 | 45.58848 | 13.44266 | 35990 ft | 385 kts | 229° |
| 2026-05-07 12:45 | 45.55302 | 13.38539 | 35988 ft | 384 kts | 229° |
| 2026-05-07 12:46 | 45.51764 | 13.32832 | 35992 ft | 384 kts | 229° |
| 2026-05-07 12:46 | 45.48216 | 13.27136 | 35985 ft | 384 kts | 228° |
| 2026-05-07 12:47 | 45.44567 | 13.21585 | 35989 ft | 384 kts | 227° |
| 2026-05-07 12:47 | 45.40908 | 13.16054 | 35987 ft | 384 kts | 227° |
| 2026-05-07 12:48 | 45.36866 | 13.11091 | 35992 ft | 387 kts | 214° |
| 2026-05-07 12:48 | 45.32210 | 13.07232 | 35989 ft | 388 kts | 213° |
| 2026-05-07 12:49 | 45.27537 | 13.03389 | 35990 ft | 388 kts | 213° |
| 2026-05-07 12:49 | 45.22868 | 12.99532 | 35996 ft | 389 kts | 213° |
| 2026-05-07 12:50 | 45.18194 | 12.95663 | 35995 ft | 389 kts | 213° |
| 2026-05-07 12:50 | 45.13546 | 12.91820 | 35991 ft | 389 kts | 213° |
| 2026-05-07 12:51 | 45.08867 | 12.87958 | 35990 ft | 390 kts | 213° |
| 2026-05-07 12:51 | 45.04181 | 12.84096 | 35992 ft | 390 kts | 213° |
| 2026-05-07 12:52 | 44.99495 | 12.80242 | 35994 ft | 390 kts | 213° |
| 2026-05-07 12:52 | 44.94806 | 12.76395 | 35989 ft | 390 kts | 214° |
| 2026-05-07 12:53 | 44.90114 | 12.72551 | 35991 ft | 390 kts | 214° |
| 2026-05-07 12:53 | 44.85424 | 12.68716 | 35995 ft | 390 kts | 214° |
| 2026-05-07 12:54 | 44.80728 | 12.64886 | 35992 ft | 390 kts | 214° |
| 2026-05-07 12:54 | 44.76039 | 12.61064 | 35994 ft | 389 kts | 214° |
| 2026-05-07 12:55 | 44.71352 | 12.57255 | 35990 ft | 389 kts | 214° |
| 2026-05-07 12:55 | 44.66660 | 12.53448 | 35993 ft | 389 kts | 214° |
| 2026-05-07 12:56 | 44.61977 | 12.49656 | 35992 ft | 388 kts | 214° |
| 2026-05-07 12:56 | 44.57299 | 12.45872 | 35990 ft | 388 kts | 214° |
| 2026-05-07 12:57 | 44.52619 | 12.42095 | 35991 ft | 388 kts | 214° |
| 2026-05-07 12:57 | 44.47944 | 12.38330 | 35986 ft | 388 kts | 214° |
| 2026-05-07 12:58 | 44.43298 | 12.34594 | 35995 ft | 388 kts | 214° |
| 2026-05-07 12:58 | 44.38621 | 12.30844 | 35991 ft | 387 kts | 214° |
| 2026-05-07 12:59 | 44.33948 | 12.27101 | 36002 ft | 387 kts | 214° |
| 2026-05-07 12:59 | 44.29274 | 12.23364 | 36008 ft | 387 kts | 214° |
| 2026-05-07 13:00 | 44.24601 | 12.19635 | 36008 ft | 387 kts | 215° |
| 2026-05-07 13:00 | 44.19920 | 12.15909 | 36009 ft | 387 kts | 214° |
| 2026-05-07 13:01 | 44.15239 | 12.12188 | 35999 ft | 387 kts | 215° |
| 2026-05-07 13:01 | 44.10553 | 12.08465 | 36001 ft | 388 kts | 215° |
| 2026-05-07 13:02 | 44.05859 | 12.04744 | 36005 ft | 389 kts | 215° |
| 2026-05-07 13:02 | 44.01151 | 12.01021 | 35995 ft | 389 kts | 215° |
| 2026-05-07 13:03 | 43.96445 | 11.97309 | 35995 ft | 389 kts | 215° |
| 2026-05-07 13:03 | 43.91735 | 11.93600 | 35994 ft | 389 kts | 215° |
| 2026-05-07 13:04 | 43.87031 | 11.89900 | 35989 ft | 388 kts | 214° |
| 2026-05-07 13:04 | 43.82331 | 11.86209 | 35982 ft | 388 kts | 214° |
| 2026-05-07 13:05 | 43.77722 | 11.82387 | 35998 ft | 382 kts | 221° |
| 2026-05-07 13:05 | 43.73863 | 11.77440 | 36008 ft | 378 kts | 228° |
| 2026-05-07 13:06 | 43.70144 | 11.72293 | 36002 ft | 379 kts | 228° |
| 2026-05-07 13:06 | 43.66409 | 11.67161 | 35998 ft | 379 kts | 228° |
| 2026-05-07 13:07 | 43.62664 | 11.62035 | 35998 ft | 380 kts | 228° |
| 2026-05-07 13:07 | 43.58905 | 11.56903 | 35988 ft | 381 kts | 228° |
| 2026-05-07 13:08 | 43.55131 | 11.51763 | 35994 ft | 381 kts | 228° |
| 2026-05-07 13:08 | 43.51354 | 11.46626 | 35986 ft | 382 kts | 228° |
| 2026-05-07 13:09 | 43.47428 | 11.41748 | 35994 ft | 386 kts | 220° |
| 2026-05-07 13:09 | 43.42713 | 11.38083 | 36001 ft | 391 kts | 213° |
| 2026-05-07 13:10 | 43.37871 | 11.34679 | 35992 ft | 391 kts | 213° |
| 2026-05-07 13:10 | 43.33038 | 11.31263 | 35993 ft | 390 kts | 213° |
| 2026-05-07 13:11 | 43.28217 | 11.27842 | 36000 ft | 390 kts | 213° |
| 2026-05-07 13:11 | 43.23404 | 11.24425 | 35997 ft | 389 kts | 213° |
| 2026-05-07 13:12 | 43.18595 | 11.21016 | 35996 ft | 389 kts | 213° |
| 2026-05-07 13:12 | 43.13789 | 11.17615 | 35999 ft | 389 kts | 213° |
| 2026-05-07 13:13 | 43.08977 | 11.14216 | 36010 ft | 389 kts | 213° |
| 2026-05-07 13:13 | 43.04169 | 11.10827 | 36002 ft | 389 kts | 213° |
| 2026-05-07 13:14 | 42.99363 | 11.07446 | 36006 ft | 388 kts | 213° |
| 2026-05-07 13:14 | 42.94560 | 11.04071 | 35996 ft | 388 kts | 213° |
| 2026-05-07 13:15 | 42.89752 | 11.00696 | 35999 ft | 388 kts | 213° |
| 2026-05-07 13:15 | 42.84956 | 10.97340 | 35998 ft | 387 kts | 213° |
| 2026-05-07 13:16 | 42.80976 | 10.94559 | 36002 ft | 387 kts | 213° |
| 2026-05-07 13:16 | 42.76185 | 10.91215 | 35996 ft | 387 kts | 213° |
| 2026-05-07 13:17 | 42.71395 | 10.87881 | 36005 ft | 387 kts | 213° |
| 2026-05-07 13:17 | 42.66608 | 10.84551 | 36010 ft | 387 kts | 213° |
| 2026-05-07 13:18 | 42.61816 | 10.81223 | 36013 ft | 387 kts | 213° |
| 2026-05-07 13:18 | 42.57020 | 10.77898 | 36020 ft | 387 kts | 213° |
| 2026-05-07 13:19 | 42.52216 | 10.74575 | 36026 ft | 388 kts | 212° |
| 2026-05-07 13:19 | 42.47409 | 10.71255 | 36031 ft | 388 kts | 213° |
| 2026-05-07 13:20 | 42.42596 | 10.67936 | 36029 ft | 388 kts | 213° |
| 2026-05-07 13:20 | 42.37786 | 10.64626 | 36046 ft | 388 kts | 213° |
| 2026-05-07 13:21 | 42.32968 | 10.61313 | 36043 ft | 388 kts | 212° |
| 2026-05-07 13:21 | 42.28180 | 10.58031 | 36043 ft | 389 kts | 212° |
| 2026-05-07 13:22 | 42.23399 | 10.54646 | 36047 ft | 388 kts | 213° |
| 2026-05-07 13:22 | 42.18652 | 10.51201 | 36045 ft | 387 kts | 213° |
| 2026-05-07 13:23 | 42.13905 | 10.47768 | 36032 ft | 387 kts | 213° |
| 2026-05-07 13:23 | 42.09162 | 10.44349 | 36036 ft | 386 kts | 213° |
| 2026-05-07 13:24 | 42.04424 | 10.40945 | 36043 ft | 386 kts | 213° |
| 2026-05-07 13:24 | 41.99684 | 10.37550 | 36035 ft | 386 kts | 213° |
| 2026-05-07 13:25 | 41.94949 | 10.34164 | 36034 ft | 385 kts | 213° |
| 2026-05-07 13:25 | 41.90220 | 10.30785 | 36025 ft | 385 kts | 213° |
| 2026-05-07 13:26 | 41.85496 | 10.27414 | 36015 ft | 384 kts | 213° |
| 2026-05-07 13:26 | 41.80778 | 10.24057 | 36022 ft | 384 kts | 213° |
| 2026-05-07 13:27 | 41.76086 | 10.20723 | 36018 ft | 384 kts | 213° |
| 2026-05-07 13:27 | 41.71336 | 10.17354 | 36022 ft | 384 kts | 213° |
| 2026-05-07 13:28 | 41.66650 | 10.14036 | 36017 ft | 383 kts | 213° |
| 2026-05-07 13:28 | 41.61935 | 10.10702 | 36012 ft | 383 kts | 214° |
| 2026-05-07 13:29 | 41.59558 | 10.09022 | 35574 ft | 388 kts | 213° |
| 2026-05-07 13:29 | 41.57180 | 10.07348 | 35036 ft | 386 kts | 213° |
| 2026-05-07 13:29 | 41.54808 | 10.05676 | 34497 ft | 385 kts | 213° |
| 2026-05-07 13:29 | 41.52436 | 10.04003 | 33898 ft | 386 kts | 213° |
| 2026-05-07 13:30 | 41.50055 | 10.02326 | 33277 ft | 387 kts | 213° |
| 2026-05-07 13:30 | 41.47670 | 10.00648 | 32641 ft | 388 kts | 213° |
| 2026-05-07 13:30 | 41.45280 | 9.98968 | 32005 ft | 389 kts | 213° |
| 2026-05-07 13:30 | 41.42899 | 9.97298 | 31543 ft | 384 kts | 213° |
| 2026-05-07 13:31 | 41.40543 | 9.95645 | 31067 ft | 381 kts | 214° |
| 2026-05-07 13:31 | 41.38206 | 9.94007 | 30582 ft | 378 kts | 214° |
| 2026-05-07 13:31 | 41.35890 | 9.92386 | 30127 ft | 374 kts | 214° |
| 2026-05-07 13:31 | 41.33596 | 9.90782 | 29667 ft | 370 kts | 214° |
| 2026-05-07 13:32 | 41.31323 | 9.89191 | 29193 ft | 368 kts | 214° |
| 2026-05-07 13:32 | 41.29071 | 9.87607 | 28740 ft | 364 kts | 216° |
| 2026-05-07 13:32 | 41.27021 | 9.85727 | 28288 ft | 354 kts | 224° |
| 2026-05-07 13:32 | 41.25209 | 9.83558 | 27834 ft | 348 kts | 228° |
| 2026-05-07 13:33 | 41.23624 | 9.81161 | 27366 ft | 343 kts | 236° |
| 2026-05-07 13:33 | 41.22243 | 9.78588 | 26928 ft | 341 kts | 237° |
| 2026-05-07 13:33 | 41.20889 | 9.76010 | 26482 ft | 339 kts | 237° |
| 2026-05-07 13:33 | 41.19547 | 9.73446 | 26029 ft | 337 kts | 237° |
| 2026-05-07 13:34 | 41.18209 | 9.70898 | 25597 ft | 336 kts | 236° |
| 2026-05-07 13:34 | 41.15538 | 9.65837 | 24729 ft | 334 kts | 236° |
| 2026-05-07 13:34 | 41.14202 | 9.63314 | 24288 ft | 334 kts | 236° |
| 2026-05-07 13:35 | 41.12855 | 9.60777 | 23864 ft | 340 kts | 236° |
| 2026-05-07 13:35 | 41.11473 | 9.58173 | 23433 ft | 351 kts | 236° |
| 2026-05-07 13:35 | 41.10056 | 9.55509 | 22971 ft | 353 kts | 236° |
| 2026-05-07 13:35 | 41.08642 | 9.52853 | 22512 ft | 351 kts | 236° |
| 2026-05-07 13:36 | 41.07239 | 9.50219 | 22069 ft | 349 kts | 236° |
| 2026-05-07 13:36 | 41.05844 | 9.47606 | 21637 ft | 346 kts | 236° |
| 2026-05-07 13:36 | 41.04459 | 9.45012 | 21195 ft | 344 kts | 236° |
| 2026-05-07 13:36 | 41.03083 | 9.42438 | 20773 ft | 341 kts | 235° |
| 2026-05-07 13:37 | 41.01717 | 9.39882 | 20342 ft | 339 kts | 235° |
| 2026-05-07 13:37 | 41.00358 | 9.37341 | 19925 ft | 337 kts | 235° |
| 2026-05-07 13:37 | 40.99009 | 9.34822 | 19533 ft | 335 kts | 235° |
| 2026-05-07 13:37 | 40.97667 | 9.32314 | 19102 ft | 333 kts | 235° |
| 2026-05-07 13:38 | 40.96346 | 9.29852 | 18692 ft | 331 kts | 235° |
| 2026-05-07 13:38 | 40.95028 | 9.27366 | 18277 ft | 329 kts | 237° |
| 2026-05-07 13:38 | 40.93968 | 9.24708 | 18047 ft | 323 kts | 246° |
| 2026-05-07 13:38 | 40.93121 | 9.21976 | 17707 ft | 320 kts | 247° |
| 2026-05-07 13:39 | 40.92298 | 9.19263 | 17330 ft | 317 kts | 247° |
| 2026-05-07 13:39 | 40.91480 | 9.16560 | 16942 ft | 316 kts | 247° |
| 2026-05-07 13:39 | 40.90660 | 9.13872 | 16549 ft | 315 kts | 247° |
| 2026-05-07 13:39 | 40.89839 | 9.11195 | 16157 ft | 314 kts | 247° |
| 2026-05-07 13:40 | 40.89019 | 9.08532 | 15760 ft | 313 kts | 247° |
| 2026-05-07 13:40 | 40.88197 | 9.05870 | 15353 ft | 313 kts | 247° |
| 2026-05-07 13:40 | 40.87374 | 9.03210 | 14958 ft | 312 kts | 247° |
| 2026-05-07 13:40 | 40.86552 | 9.00557 | 14573 ft | 312 kts | 247° |
| 2026-05-07 13:41 | 40.85730 | 8.97906 | 14142 ft | 312 kts | 247° |
| 2026-05-07 13:41 | 40.84907 | 8.95257 | 13733 ft | 312 kts | 247° |
| 2026-05-07 13:41 | 40.84084 | 8.92610 | 13342 ft | 311 kts | 247° |
| 2026-05-07 13:41 | 40.83262 | 8.89967 | 12952 ft | 311 kts | 247° |
| 2026-05-07 13:42 | 40.82439 | 8.87330 | 12544 ft | 311 kts | 247° |
| 2026-05-07 13:42 | 40.81615 | 8.84695 | 12125 ft | 311 kts | 247° |
| 2026-05-07 13:42 | 40.80785 | 8.82059 | 11708 ft | 311 kts | 247° |
| 2026-05-07 13:42 | 40.79955 | 8.79430 | 11332 ft | 310 kts | 247° |
| 2026-05-07 13:43 | 40.79125 | 8.76805 | 10946 ft | 310 kts | 246° |
| 2026-05-07 13:43 | 40.78296 | 8.74186 | 10595 ft | 308 kts | 246° |
| 2026-05-07 13:43 | 40.77333 | 8.71723 | 10449 ft | 299 kts | 233° |
| 2026-05-07 13:43 | 40.75989 | 8.69696 | 10332 ft | 288 kts | 226° |
| 2026-05-07 13:44 | 40.74635 | 8.67794 | 10191 ft | 281 kts | 226° |
| 2026-05-07 13:44 | 40.73309 | 8.65942 | 10055 ft | 274 kts | 226° |
| 2026-05-07 13:44 | 40.72020 | 8.64136 | 9902 ft | 268 kts | 226° |
| 2026-05-07 13:44 | 40.70749 | 8.62348 | 9638 ft | 267 kts | 226° |
| 2026-05-07 13:45 | 40.69484 | 8.60562 | 9365 ft | 267 kts | 226° |
| 2026-05-07 13:45 | 40.68217 | 8.58770 | 9081 ft | 267 kts | 226° |
| 2026-05-07 13:45 | 40.66954 | 8.56980 | 8808 ft | 266 kts | 226° |
| 2026-05-07 13:45 | 40.65692 | 8.55194 | 8541 ft | 265 kts | 226° |
| 2026-05-07 13:46 | 40.64438 | 8.53417 | 8260 ft | 265 kts | 226° |
| 2026-05-07 13:46 | 40.63180 | 8.51634 | 7963 ft | 266 kts | 226° |
| 2026-05-07 13:46 | 40.61943 | 8.49881 | 7696 ft | 265 kts | 226° |
| 2026-05-07 13:46 | 40.60693 | 8.48112 | 7414 ft | 264 kts | 226° |
| 2026-05-07 13:47 | 40.59442 | 8.46342 | 7139 ft | 263 kts | 226° |
| 2026-05-07 13:47 | 40.58197 | 8.44579 | 6856 ft | 263 kts | 226° |
| 2026-05-07 13:47 | 40.56952 | 8.42816 | 6586 ft | 263 kts | 226° |
| 2026-05-07 13:47 | 40.55713 | 8.41065 | 6315 ft | 261 kts | 226° |
| 2026-05-07 13:48 | 40.54479 | 8.39320 | 6037 ft | 260 kts | 226° |
| 2026-05-07 13:48 | 40.53243 | 8.37575 | 5737 ft | 261 kts | 226° |
| 2026-05-07 13:48 | 40.52008 | 8.35838 | 5475 ft | 259 kts | 226° |
| 2026-05-07 13:48 | 40.50776 | 8.34105 | 5213 ft | 259 kts | 225° |
| 2026-05-07 13:49 | 40.49358 | 8.32684 | 5003 ft | 257 kts | 204° |
| 2026-05-07 13:49 | 40.47721 | 8.31753 | 4985 ft | 255 kts | 203° |
| 2026-05-07 13:49 | 40.46131 | 8.30824 | 4953 ft | 244 kts | 204° |
| 2026-05-07 13:49 | 40.44619 | 8.29929 | 4945 ft | 232 kts | 204° |
| 2026-05-07 13:50 | 40.43203 | 8.29028 | 4937 ft | 220 kts | 214° |
| 2026-05-07 13:50 | 40.42282 | 8.27513 | 4963 ft | 214 kts | 250° |
| 2026-05-07 13:50 | 40.42090 | 8.25577 | 4978 ft | 220 kts | 276° |
| 2026-05-07 13:50 | 40.42541 | 8.23637 | 4986 ft | 226 kts | 293° |
| 2026-05-07 13:51 | 40.43202 | 8.21745 | 4969 ft | 228 kts | 294° |
| 2026-05-07 13:51 | 40.44044 | 8.19990 | 4937 ft | 229 kts | 319° |
| 2026-05-07 13:51 | 40.45448 | 8.19103 | 4957 ft | 226 kts | 353° |
| 2026-05-07 13:51 | 40.46983 | 8.19325 | 4983 ft | 224 kts | 19° |
| 2026-05-07 13:52 | 40.48440 | 8.20125 | 4973 ft | 229 kts | 25° |
| 2026-05-07 13:52 | 40.49893 | 8.21014 | 4960 ft | 231 kts | 25° |
| 2026-05-07 13:52 | 40.51346 | 8.21915 | 4961 ft | 230 kts | 25° |
| 2026-05-07 13:52 | 40.52797 | 8.22804 | 4955 ft | 230 kts | 25° |
| 2026-05-07 13:53 | 40.54244 | 8.23683 | 4960 ft | 229 kts | 25° |
| 2026-05-07 13:53 | 40.55689 | 8.24555 | 4965 ft | 229 kts | 25° |
| 2026-05-07 13:53 | 40.57137 | 8.25425 | 4949 ft | 229 kts | 25° |
| 2026-05-07 13:53 | 40.58575 | 8.26289 | 4969 ft | 226 kts | 25° |
| 2026-05-07 13:54 | 40.60003 | 8.27148 | 4962 ft | 225 kts | 25° |
| 2026-05-07 13:54 | 40.61432 | 8.28007 | 4949 ft | 226 kts | 25° |
| 2026-05-07 13:54 | 40.62866 | 8.28869 | 4964 ft | 228 kts | 25° |
| 2026-05-07 13:54 | 40.64317 | 8.29739 | 4977 ft | 230 kts | 25° |
| 2026-05-07 13:55 | 40.65774 | 8.30615 | 4964 ft | 230 kts | 25° |
| 2026-05-07 13:55 | 40.67229 | 8.31491 | 4951 ft | 229 kts | 25° |
| 2026-05-07 13:55 | 40.68674 | 8.32362 | 4955 ft | 227 kts | 25° |
| 2026-05-07 13:55 | 40.70105 | 8.33224 | 4959 ft | 226 kts | 25° |
| 2026-05-07 13:56 | 40.71527 | 8.34083 | 4958 ft | 224 kts | 25° |
| 2026-05-07 13:56 | 40.72941 | 8.34937 | 4951 ft | 223 kts | 25° |
| 2026-05-07 13:56 | 40.74351 | 8.35788 | 4959 ft | 223 kts | 25° |
| 2026-05-07 13:56 | 40.75768 | 8.36643 | 4972 ft | 226 kts | 25° |
| 2026-05-07 13:57 | 40.77205 | 8.37513 | 4977 ft | 229 kts | 25° |
| 2026-05-07 13:57 | 40.78657 | 8.38394 | 4967 ft | 230 kts | 25° |
| 2026-05-07 13:57 | 40.80111 | 8.39277 | 4961 ft | 230 kts | 25° |
| 2026-05-07 13:57 | 40.81563 | 8.40156 | 4965 ft | 229 kts | 25° |
| 2026-05-07 13:58 | 40.83013 | 8.41036 | 4968 ft | 229 kts | 25° |
| 2026-05-07 13:58 | 40.84465 | 8.41918 | 4961 ft | 230 kts | 25° |
| 2026-05-07 13:58 | 40.85918 | 8.42802 | 4950 ft | 230 kts | 25° |
| 2026-05-07 13:58 | 40.87364 | 8.43682 | 4962 ft | 228 kts | 25° |
| 2026-05-07 13:59 | 40.88804 | 8.44560 | 4959 ft | 228 kts | 25° |
| 2026-05-07 13:59 | 40.90240 | 8.45436 | 4961 ft | 227 kts | 25° |
| 2026-05-07 13:59 | 40.91669 | 8.46308 | 4966 ft | 226 kts | 25° |
| 2026-05-07 13:59 | 40.93090 | 8.47176 | 4978 ft | 224 kts | 25° |
| 2026-05-07 14:00 | 40.94486 | 8.48028 | 4969 ft | 224 kts | 25° |
| 2026-05-07 14:00 | 40.95898 | 8.48891 | 4956 ft | 224 kts | 25° |
| 2026-05-07 14:00 | 40.97327 | 8.49766 | 4971 ft | 223 kts | 25° |
| 2026-05-07 14:00 | 40.98712 | 8.50614 | 4985 ft | 222 kts | 25° |
| 2026-05-07 14:01 | 41.00129 | 8.51482 | 4984 ft | 227 kts | 25° |
| 2026-05-07 14:01 | 41.01591 | 8.52379 | 4968 ft | 230 kts | 25° |
| 2026-05-07 14:01 | 41.03016 | 8.53254 | 4974 ft | 228 kts | 25° |
| 2026-05-07 14:01 | 41.04449 | 8.54134 | 4984 ft | 226 kts | 25° |
| 2026-05-07 14:02 | 41.05873 | 8.55010 | 4968 ft | 225 kts | 25° |
| 2026-05-07 14:02 | 41.07295 | 8.55885 | 4944 ft | 225 kts | 25° |
| 2026-05-07 14:02 | 41.08713 | 8.56759 | 4958 ft | 224 kts | 25° |
| 2026-05-07 14:02 | 41.10125 | 8.57627 | 4955 ft | 224 kts | 25° |
| 2026-05-07 14:03 | 41.11553 | 8.58505 | 4602 ft | 235 kts | 25° |
| 2026-05-07 14:03 | 41.12928 | 8.59668 | 4364 ft | 228 kts | 49° |
| 2026-05-07 14:03 | 41.13622 | 8.61496 | 4347 ft | 222 kts | 83° |
| 2026-05-07 14:03 | 41.13428 | 8.63492 | 4374 ft | 222 kts | 116° |
| 2026-05-07 14:04 | 41.12840 | 8.64590 | 4371 ft | 222 kts | 139° |
| 2026-05-07 14:04 | 41.11481 | 8.65495 | 4359 ft | 222 kts | 172° |
| 2026-05-07 14:04 | 41.09942 | 8.65272 | 4197 ft | 229 kts | 204° |
| 2026-05-07 14:04 | 41.08561 | 8.64245 | 4000 ft | 226 kts | 212° |
| 2026-05-07 14:05 | 41.07239 | 8.63126 | 3779 ft | 225 kts | 213° |
| 2026-05-07 14:05 | 41.05925 | 8.61992 | 3531 ft | 226 kts | 213° |
| 2026-05-07 14:05 | 41.04615 | 8.60855 | 3308 ft | 225 kts | 213° |
| 2026-05-07 14:05 | 41.03311 | 8.59727 | 3092 ft | 223 kts | 213° |
| 2026-05-07 14:06 | 41.02016 | 8.58609 | 2864 ft | 222 kts | 213° |
| 2026-05-07 14:06 | 41.00717 | 8.57486 | 2638 ft | 228 kts | 213° |
| 2026-05-07 14:06 | 40.99311 | 8.56271 | 2569 ft | 252 kts | 213° |
| 2026-05-07 14:06 | 40.97816 | 8.54972 | 2525 ft | 261 kts | 213° |
| 2026-05-07 14:07 | 40.96297 | 8.53647 | 2493 ft | 261 kts | 213° |
| 2026-05-07 14:07 | 40.94788 | 8.52331 | 2481 ft | 259 kts | 213° |
| 2026-05-07 14:07 | 40.93280 | 8.51013 | 2478 ft | 260 kts | 213° |
| 2026-05-07 14:07 | 40.91774 | 8.49690 | 2492 ft | 260 kts | 213° |
| 2026-05-07 14:08 | 40.90265 | 8.48364 | 2481 ft | 261 kts | 213° |
| 2026-05-07 14:08 | 40.88756 | 8.47039 | 2465 ft | 258 kts | 213° |
| 2026-05-07 14:08 | 40.87303 | 8.45760 | 2458 ft | 245 kts | 213° |
| 2026-05-07 14:08 | 40.85929 | 8.44542 | 2481 ft | 228 kts | 213° |
| 2026-05-07 14:09 | 40.84660 | 8.43417 | 2462 ft | 211 kts | 213° |
| 2026-05-07 14:09 | 40.83477 | 8.42423 | 2458 ft | 193 kts | 210° |
| 2026-05-07 14:09 | 40.82369 | 8.41566 | 2463 ft | 177 kts | 209° |
| 2026-05-07 14:09 | 40.81327 | 8.40766 | 2471 ft | 172 kts | 209° |
| 2026-05-07 14:10 | 40.80285 | 8.39991 | 2465 ft | 172 kts | 208° |
| 2026-05-07 14:10 | 40.79221 | 8.39289 | 2480 ft | 171 kts | 206° |
| 2026-05-07 14:10 | 40.78146 | 8.38599 | 2477 ft | 173 kts | 206° |
| 2026-05-07 14:10 | 40.77062 | 8.37909 | 2476 ft | 173 kts | 206° |
| 2026-05-07 14:11 | 40.75979 | 8.37216 | 2474 ft | 173 kts | 206° |
| 2026-05-07 14:11 | 40.74896 | 8.36521 | 2472 ft | 174 kts | 206° |
| 2026-05-07 14:11 | 40.73813 | 8.35815 | 2468 ft | 174 kts | 206° |
| 2026-05-07 14:11 | 40.72741 | 8.35114 | 2261 ft | 167 kts | 206° |
| 2026-05-07 14:12 | 40.71739 | 8.34446 | 2000 ft | 156 kts | 206° |
| 2026-05-07 14:12 | 40.70793 | 8.33799 | 1679 ft | 150 kts | 206° |
| 2026-05-07 14:12 | 40.69875 | 8.33147 | 1377 ft | 151 kts | 205° |
| 2026-05-07 14:12 | 40.68944 | 8.32455 | 1078 ft | 156 kts | 203° |
| 2026-05-07 14:13 | 40.67944 | 8.31833 | 937 ft | 161 kts | 199° |
| 2026-05-07 14:13 | 40.66885 | 8.31295 | 835 ft | 163 kts | 201° |
| 2026-05-07 14:13 | 40.65866 | 8.30694 | 521 ft | 162 kts | 206° |
| 2026-05-07 14:13 | 40.64850 | 8.30059 | 269 ft | 158 kts | 203° |
| 2026-05-07 14:14 | 40.63871 | 8.29470 | 99 ft | 147 kts | 205° |
| 2026-05-07 14:14 | 40.63102 | 8.29009 | 98 ft | 94 kts | 204° |
| 2026-05-07 14:14 | 40.62798 | 8.28838 | 90 ft | 22 kts | 189° |
| 2026-05-07 14:14 | 40.62639 | 8.28837 | 85 ft | 12 kts | 174° |
| 2026-05-07 14:15 | 40.62595 | 8.28899 | 79 ft | 9 kts | 90° |
| 2026-05-07 14:15 | 40.62628 | 8.28970 | 80 ft | 9 kts | 35° |
| 2026-05-07 14:15 | 40.62684 | 8.29006 | 87 ft | 9 kts | 24° |
| 2026-05-07 14:15 | 40.62740 | 8.29039 | 86 ft | 9 kts | 24° |
| 2026-05-07 14:16 | 40.62795 | 8.29071 | 88 ft | 9 kts | 24° |
| 2026-05-07 14:16 | 40.62840 | 8.29124 | 91 ft | 9 kts | 68° |
| 2026-05-07 14:16 | 40.62861 | 8.29209 | 88 ft | 10 kts | 66° |
| 2026-05-07 14:16 | 40.62901 | 8.29277 | 89 ft | 10 kts | 25° |
| 2026-05-07 14:17 | 40.62961 | 8.29312 | 90 ft | 9 kts | 24° |
| 2026-05-07 14:17 | 40.63019 | 8.29347 | 89 ft | 9 kts | 24° |
| 2026-05-07 14:17 | 40.63076 | 8.29380 | 91 ft | 9 kts | 24° |
| 2026-05-07 14:17 | 40.63130 | 8.29413 | 91 ft | 9 kts | 25° |
| 2026-05-07 14:18 | 40.63142 | 8.29442 | 91 ft | 4 kts | 105° |
| 2026-05-07 14:18 | 40.63130 | 8.29479 | 89 ft | 1 kts | 115° |
| 2026-05-07 14:18 | 40.63129 | 8.29480 | 89 ft | 0 kts | 115° |